East Buffalo, Pennsylvania
Current Conditions -  °F | °C
As of 3:53 AM on Saturday 01 Nov 2014 (Local Time) from KSEG Reporting Station
Light Rain Light Rain  
Wind Chill:   Ceiling: 5000
Heat Index:   Visibility: 10mi
Dew Point:   Wind: 6mph
Humidity: 71%   Direction: 350°N
Pressure: 29.85"   Gusts: NA
Location:  40.9885°N, 76.9787°W
Report Text: KSEG 010753Z AUTO 35005KT 10SM -RA OVC050 08/03 A2985 RMK AO2 RAB38 SLP110 P0000 T00780028
Loading
Personal Weather Stations






























Interactive Weather Map
Tropical Storm Tracking
New forecast layout! Learn more

10-Day Weather Forecast

Advertisements
Track Severe Weather on mobile